createdAt,value
2022-09-09T00:02:03.863Z,18.28
2022-09-09T00:07:04.962Z,18.28
2022-09-09T00:12:07.096Z,18.33
2022-09-09T00:17:07.207Z,18.29
2022-09-09T00:22:06.308Z,18.15
2022-09-09T00:27:12.341Z,18.17
2022-09-09T00:32:07.499Z,18.10
2022-09-09T00:37:08.645Z,18.07
2022-09-09T00:42:09.767Z,18.03
2022-09-09T00:47:11.184Z,17.85
2022-09-09T00:52:12.289Z,17.81
2022-09-09T00:57:14.392Z,17.97
2022-09-09T01:02:14.558Z,17.92
2022-09-09T01:07:14.661Z,17.94
2022-09-09T01:12:13.842Z,17.71
2022-09-09T01:17:13.953Z,17.51
2022-09-09T01:22:16.135Z,17.06
2022-09-09T01:27:15.234Z,16.99
2022-09-09T01:32:17.322Z,16.90
2022-09-09T01:37:17.440Z,16.88
2022-09-09T01:42:16.678Z,16.81
2022-09-09T01:47:18.806Z,16.86
2022-09-09T01:52:17.925Z,16.83
2022-09-09T01:57:20.049Z,16.70
2022-09-09T02:02:19.240Z,16.73
2022-09-09T02:07:20.351Z,16.73
2022-09-09T02:12:21.559Z,16.74
2022-09-09T02:17:22.683Z,16.63
2022-09-09T02:22:23.768Z,16.53
2022-09-09T02:27:24.898Z,16.25
2022-09-09T02:32:26.016Z,16.27
2022-09-09T02:37:28.115Z,16.25
2022-09-09T02:42:27.277Z,16.16
2022-09-09T02:47:29.393Z,16.30
2022-09-09T02:52:29.622Z,16.34
2022-09-09T02:57:28.741Z,16.33
2022-09-09T03:02:30.961Z,16.18
2022-09-09T03:07:31.589Z,16.12
2022-09-09T03:12:31.730Z,16.26
2022-09-09T03:17:30.880Z,16.16
2022-09-09T03:22:32.005Z,16.16
2022-09-09T03:27:33.158Z,16.06
2022-09-09T03:32:36.228Z,16.14
2022-09-09T03:37:35.370Z,16.26
2022-09-09T03:42:37.448Z,16.41
2022-09-09T03:47:36.576Z,16.30
2022-09-09T03:52:38.723Z,16.31
2022-09-09T03:57:38.838Z,16.23
2022-09-09T04:02:37.967Z,16.14
2022-09-09T04:07:39.087Z,16.16
2022-09-09T04:12:42.150Z,16.18
2022-09-09T04:17:43.286Z,16.06
2022-09-09T04:22:43.369Z,16.04
2022-09-09T04:27:42.489Z,16.11
2022-09-09T04:32:43.666Z,16.23
2022-09-09T04:37:44.761Z,16.35
2022-09-09T04:42:46.902Z,16.33
2022-09-09T04:47:47.023Z,16.31
2022-09-09T04:52:46.490Z,16.40
2022-09-09T04:57:48.632Z,16.42
2022-09-09T05:02:46.827Z,16.48
2022-09-09T05:07:49.951Z,16.67
2022-09-09T05:12:50.192Z,16.75
2022-09-09T05:17:50.333Z,16.89
2022-09-09T05:22:49.440Z,17.00
2022-09-09T05:27:51.554Z,17.17
2022-09-09T05:32:51.655Z,17.18
2022-09-09T05:37:51.748Z,17.20
2022-09-09T05:42:51.875Z,17.23
2022-09-09T05:47:50.982Z,17.33
2022-09-09T05:52:52.165Z,17.43
2022-09-09T05:57:54.345Z,17.50
2022-09-09T06:02:53.750Z,17.50
2022-09-09T06:07:54.903Z,17.63
2022-09-09T06:12:57.003Z,17.69
2022-09-09T06:17:57.162Z,17.78
2022-09-09T06:22:56.254Z,17.81
2022-09-09T06:27:57.454Z,17.82
2022-09-09T06:32:58.648Z,17.94
2022-09-09T06:37:59.727Z,18.09
2022-09-09T06:43:00.821Z,18.19
2022-09-09T06:48:01.947Z,18.33
2022-09-09T06:53:03.074Z,18.19
2022-09-09T06:58:04.222Z,18.19
2022-09-09T07:03:07.349Z,18.39
2022-09-09T07:08:05.521Z,18.61
2022-09-09T07:13:07.816Z,18.73
2022-09-09T07:18:07.003Z,18.97
2022-09-09T07:23:09.095Z,18.99
2022-09-09T07:28:09.446Z,18.99
2022-09-09T07:33:09.566Z,19.05
2022-09-09T07:38:09.695Z,18.91
2022-09-09T07:43:08.805Z,18.52
2022-09-09T07:48:09.963Z,18.46
2022-09-09T07:53:13.119Z,18.18
2022-09-09T07:58:12.309Z,18.15
2022-09-09T08:03:21.233Z,18.24
2022-09-09T08:08:14.298Z,18.34
2022-09-09T08:13:18.339Z,18.17
2022-09-09T08:18:15.856Z,18.09
2022-09-09T08:23:17.991Z,17.99
2022-09-09T08:28:17.179Z,18.13
2022-09-09T08:33:18.317Z,17.92
2022-09-09T08:38:20.843Z,17.85
2022-09-09T08:43:20.988Z,17.88
2022-09-09T08:48:20.231Z,17.48
2022-09-09T08:53:22.334Z,17.38
2022-09-09T08:58:21.491Z,17.28
2022-09-09T09:03:22.654Z,17.14
2022-09-09T09:08:23.818Z,17.17
2022-09-09T09:13:25.939Z,17.04
2022-09-09T09:18:25.112Z,17.04
2022-09-09T09:23:26.245Z,17.11
2022-09-09T09:28:27.360Z,17.18
2022-09-09T09:33:28.535Z,17.36
2022-09-09T09:43:31.660Z,17.54
2022-09-09T09:48:30.779Z,17.79
2022-09-09T09:53:31.879Z,18.12
2022-09-09T09:58:34.076Z,18.42
2022-09-09T10:03:34.225Z,19.05
2022-09-09T10:08:35.362Z,19.58
2022-09-09T10:13:35.529Z,19.90
2022-09-09T10:18:35.674Z,20.15
2022-09-09T10:23:35.880Z,20.23
2022-09-09T10:28:36.099Z,20.28
2022-09-09T10:33:36.324Z,20.13
2022-09-09T10:38:36.444Z,20.18
2022-09-09T10:43:35.609Z,19.79
2022-09-09T10:48:36.697Z,19.78
2022-09-09T10:53:39.052Z,20.31
2022-09-09T10:58:38.315Z,20.39
2022-09-09T11:03:39.435Z,20.83
2022-09-09T11:08:41.575Z,21.19
2022-09-09T11:13:40.681Z,21.30
2022-09-09T11:18:41.814Z,21.78
2022-09-09T11:23:43.945Z,22.16
2022-09-09T11:28:44.110Z,22.56
2022-09-09T11:33:43.215Z,23.01
2022-09-09T11:38:45.341Z,23.29
2022-09-09T11:43:44.836Z,23.24
2022-09-09T11:48:44.043Z,22.54
2022-09-09T11:53:45.138Z,21.46
2022-09-09T11:58:46.784Z,20.54
2022-09-09T12:03:47.262Z,20.54
2022-09-09T12:08:46.494Z,21.06
2022-09-09T12:13:47.778Z,20.65
2022-09-09T12:18:48.996Z,21.23
2022-09-09T12:23:52.098Z,21.64
2022-09-09T12:28:51.196Z,21.13
2022-09-09T12:33:54.305Z,21.21
2022-09-09T12:38:53.498Z,22.53
2022-09-09T12:43:54.628Z,22.34
2022-09-09T12:48:57.731Z,22.90
2022-09-09T12:53:56.867Z,21.81
2022-09-09T12:58:58.068Z,20.43
2022-09-09T13:03:59.194Z,20.25
2022-09-09T13:09:00.356Z,20.90
2022-09-09T13:14:00.499Z,21.63
2022-09-09T13:19:02.583Z,21.99
2022-09-09T13:24:01.783Z,21.78
2022-09-09T13:29:02.961Z,21.21
2022-09-09T13:34:06.196Z,21.54
2022-09-09T13:39:05.303Z,21.91
2022-09-09T13:44:07.530Z,22.13
2022-09-09T13:49:05.749Z,22.17
2022-09-09T13:54:06.941Z,22.90
2022-09-09T13:59:08.125Z,23.07
2022-09-09T14:04:09.259Z,22.74
2022-09-09T14:09:10.398Z,23.07
2022-09-09T14:14:13.513Z,23.17
2022-09-09T14:19:12.884Z,23.64
2022-09-09T14:24:14.129Z,23.79
2022-09-09T14:29:15.260Z,23.58
2022-09-09T14:34:16.406Z,23.23
2022-09-09T14:39:17.570Z,23.05
2022-09-09T14:44:19.713Z,22.84
2022-09-09T14:49:20.893Z,22.94
2022-09-09T14:54:20.025Z,23.09
2022-09-09T14:59:22.116Z,22.84
2022-09-09T15:04:22.284Z,22.56
2022-09-09T15:09:22.380Z,22.10
2022-09-09T15:14:22.506Z,22.12
2022-09-09T15:19:23.320Z,22.74
2022-09-09T15:24:22.496Z,23.58
2022-09-09T15:29:24.592Z,23.43
2022-09-09T15:34:24.705Z,23.34
2022-09-09T15:39:23.847Z,23.70
2022-09-09T15:44:25.027Z,24.20
2022-09-09T15:49:26.126Z,24.56
2022-09-09T15:54:27.333Z,24.69
2022-09-09T15:59:28.430Z,24.50
2022-09-09T16:04:30.607Z,25.09
2022-09-09T16:09:29.731Z,25.06
2022-09-09T16:14:30.883Z,25.16
2022-09-09T16:19:32.111Z,24.20
2022-09-09T16:24:34.225Z,23.40
2022-09-09T16:29:33.347Z,22.60
2022-09-09T16:34:34.607Z,22.54
2022-09-09T16:39:36.855Z,23.05
2022-09-09T16:44:34.975Z,22.72
2022-09-09T16:49:36.109Z,22.82
2022-09-09T16:54:37.218Z,23.04
2022-09-09T16:59:38.407Z,22.27
2022-09-09T17:04:40.598Z,21.04
2022-09-09T17:09:39.750Z,20.90
2022-09-09T17:14:41.113Z,20.41
2022-09-09T17:19:42.306Z,20.23
2022-09-09T17:24:44.499Z,19.90
2022-09-09T17:29:43.625Z,19.63
2022-09-09T17:34:45.734Z,19.65
2022-09-09T17:39:44.987Z,19.47
2022-09-09T17:44:46.102Z,19.24
2022-09-09T17:49:47.321Z,19.42
2022-09-09T17:54:48.450Z,19.65
2022-09-09T17:59:49.668Z,19.79
2022-09-09T18:04:50.810Z,19.58
2022-09-09T18:09:52.147Z,19.76
2022-09-09T18:14:53.393Z,19.80
2022-09-09T18:19:55.669Z,19.87
2022-09-09T18:24:54.966Z,19.93
2022-09-09T18:29:56.190Z,19.98
2022-09-09T18:34:57.827Z,20.02
2022-09-09T18:39:59.635Z,19.79
2022-09-09T18:44:57.022Z,19.91
2022-09-09T18:49:58.313Z,19.75
2022-09-09T18:54:59.664Z,19.79
2022-09-09T19:00:01.056Z,19.57
2022-09-09T19:05:03.356Z,19.36
2022-09-09T19:10:02.703Z,19.38
2022-09-09T19:15:02.337Z,19.24
2022-09-09T19:20:04.507Z,19.06
2022-09-09T19:25:03.770Z,18.94
2022-09-09T19:30:06.010Z,18.83
2022-09-09T19:35:06.220Z,18.70
2022-09-09T19:40:07.670Z,18.29
2022-09-09T19:45:05.921Z,18.18
2022-09-09T19:50:06.106Z,18.13
2022-09-09T19:55:05.239Z,18.22
2022-09-09T20:00:06.328Z,17.95
2022-09-09T20:05:08.418Z,17.85
2022-09-09T20:10:08.547Z,17.63
2022-09-09T20:15:07.658Z,17.66
2022-09-09T20:20:09.840Z,17.51
2022-09-09T20:25:10.950Z,17.50
2022-09-09T20:30:10.077Z,17.50
2022-09-09T20:35:11.172Z,17.47
2022-09-09T20:40:13.327Z,17.50
2022-09-09T20:45:13.402Z,17.63
2022-09-09T20:50:12.507Z,17.28
2022-09-09T20:55:13.611Z,16.81
2022-09-09T21:00:14.759Z,16.74
2022-09-09T21:05:20.707Z,16.88
2022-09-09T21:10:16.949Z,17.00
2022-09-09T21:15:18.171Z,16.99
2022-09-09T21:20:21.287Z,17.03
2022-09-09T21:25:21.411Z,16.99
2022-09-09T21:30:24.823Z,16.80
2022-09-09T21:35:20.597Z,16.74
2022-09-09T21:40:23.714Z,16.80
2022-09-09T21:45:22.811Z,16.89
2022-09-09T21:50:28.365Z,16.81
2022-09-09T21:55:23.821Z,16.88
2022-09-09T22:00:25.066Z,16.81
2022-09-09T22:05:27.178Z,16.71
2022-09-09T22:10:26.412Z,16.63
2022-09-09T22:15:28.516Z,16.44
2022-09-09T22:20:29.589Z,16.38
2022-09-09T22:25:29.871Z,16.35
2022-09-09T22:30:29.015Z,16.16
2022-09-09T22:35:30.155Z,16.03
2022-09-09T22:40:30.262Z,15.99
2022-09-09T22:45:31.395Z,16.01
2022-09-09T22:50:32.527Z,16.01
2022-09-09T22:55:32.661Z,16.11
2022-09-09T23:00:33.805Z,16.20
2022-09-09T23:05:35.923Z,16.06
2022-09-09T23:10:35.058Z,15.92
2022-09-09T23:15:36.177Z,15.85
2022-09-09T23:20:37.275Z,15.86
2022-09-09T23:25:39.388Z,15.79
2022-09-09T23:30:38.663Z,15.81
2022-09-09T23:35:39.740Z,15.64
2022-09-09T23:40:41.841Z,15.61
2022-09-09T23:45:41.056Z,15.75
2022-09-09T23:50:42.139Z,15.81
2022-09-09T23:55:44.237Z,16.20
